sensor_id;sensor_type;location;lat;lon;timestamp;temperature;humidity
17851;DHT22;9051;51.548;14.348;2023-04-01T00:00:22;9.80;99.90
17851;DHT22;9051;51.548;14.348;2023-04-01T00:02:54;9.80;99.90
17851;DHT22;9051;51.548;14.348;2023-04-01T00:05:26;9.80;99.90
17851;DHT22;9051;51.548;14.348;2023-04-01T00:07:58;9.70;99.90
17851;DHT22;9051;51.548;14.348;2023-04-01T00:10:31;9.70;99.90
17851;DHT22;9051;51.548;14.348;2023-04-01T00:13:03;9.70;99.90
17851;DHT22;9051;51.548;14.348;2023-04-01T00:15:36;9.70;99.90
17851;DHT22;9051;51.548;14.348;2023-04-01T00:18:08;9.80;99.90
17851;DHT22;9051;51.548;14.348;2023-04-01T00:20:43;9.80;99.90
17851;DHT22;9051;51.548;14.348;2023-04-01T00:23:16;9.80;99.90
17851;DHT22;9051;51.548;14.348;2023-04-01T00:25:48;9.80;99.90
17851;DHT22;9051;51.548;14.348;2023-04-01T00:28:20;9.80;99.90
17851;DHT22;9051;51.548;14.348;2023-04-01T00:30:53;9.90;99.90
17851;DHT22;9051;51.548;14.348;2023-04-01T00:33:25;9.80;99.90
17851;DHT22;9051;51.548;14.348;2023-04-01T00:36:06;9.90;99.90
17851;DHT22;9051;51.548;14.348;2023-04-01T00:38:39;9.90;99.90
17851;DHT22;9051;51.548;14.348;2023-04-01T00:41:14;9.80;99.90
17851;DHT22;9051;51.548;14.348;2023-04-01T00:43:49;9.80;99.90
17851;DHT22;9051;51.548;14.348;2023-04-01T00:46:23;9.70;99.90
17851;DHT22;9051;51.548;14.348;2023-04-01T00:48:56;9.70;99.90
17851;DHT22;9051;51.548;14.348;2023-04-01T00:51:29;9.70;99.90
17851;DHT22;9051;51.548;14.348;2023-04-01T00:54:01;9.70;99.90
17851;DHT22;9051;51.548;14.348;2023-04-01T00:56:36;9.70;99.90
17851;DHT22;9051;51.548;14.348;2023-04-01T00:59:13;9.80;99.90
17851;DHT22;9051;51.548;14.348;2023-04-01T01:01:47;9.70;99.90
17851;DHT22;9051;51.548;14.348;2023-04-01T01:04:24;9.70;99.90
17851;DHT22;9051;51.548;14.348;2023-04-01T01:07:05;9.70;99.90
17851;DHT22;9051;51.548;14.348;2023-04-01T01:09:44;9.80;99.90
17851;DHT22;9051;51.548;14.348;2023-04-01T01:12:20;9.80;99.90
17851;DHT22;9051;51.548;14.348;2023-04-01T01:15:01;9.90;99.90
17851;DHT22;9051;51.548;14.348;2023-04-01T01:17:45;9.80;99.90
17851;DHT22;9051;51.548;14.348;2023-04-01T01:20:44;9.80;99.90
17851;DHT22;9051;51.548;14.348;2023-04-01T01:26:46;9.80;99.90
17851;DHT22;9051;51.548;14.348;2023-04-01T01:32:54;9.90;99.90
17851;DHT22;9051;51.548;14.348;2023-04-01T01:35:32;9.80;99.90
17851;DHT22;9051;51.548;14.348;2023-04-01T01:38:10;9.70;99.90
17851;DHT22;9051;51.548;14.348;2023-04-01T01:40:47;9.80;99.90
17851;DHT22;9051;51.548;14.348;2023-04-01T01:43:24;9.80;99.90
17851;DHT22;9051;51.548;14.348;2023-04-01T01:46:00;9.80;99.90
17851;DHT22;9051;51.548;14.348;2023-04-01T01:48:34;9.80;99.90
17851;DHT22;9051;51.548;14.348;2023-04-01T01:51:08;9.90;99.90
17851;DHT22;9051;51.548;14.348;2023-04-01T01:53:40;9.80;99.90
17851;DHT22;9051;51.548;14.348;2023-04-01T01:56:12;9.80;99.90
17851;DHT22;9051;51.548;14.348;2023-04-01T01:58:48;9.90;99.90
17851;DHT22;9051;51.548;14.348;2023-04-01T02:01:25;9.80;99.90
17851;DHT22;9051;51.548;14.348;2023-04-01T02:04:00;9.90;99.90
17851;DHT22;9051;51.548;14.348;2023-04-01T02:06:36;9.90;99.90
17851;DHT22;9051;51.548;14.348;2023-04-01T02:09:10;9.90;99.90
17851;DHT22;9051;51.548;14.348;2023-04-01T02:11:47;9.80;99.90
17851;DHT22;9051;51.548;14.348;2023-04-01T02:14:21;9.80;99.90
17851;DHT22;9051;51.548;14.348;2023-04-01T02:16:57;9.90;99.90
17851;DHT22;9051;51.548;14.348;2023-04-01T02:19:32;9.90;99.90
17851;DHT22;9051;51.548;14.348;2023-04-01T02:22:10;9.80;99.90
17851;DHT22;9051;51.548;14.348;2023-04-01T02:24:43;9.80;99.90
17851;DHT22;9051;51.548;14.348;2023-04-01T02:27:16;9.80;99.90
17851;DHT22;9051;51.548;14.348;2023-04-01T02:29:49;9.80;99.90
17851;DHT22;9051;51.548;14.348;2023-04-01T02:32:21;9.80;99.90
17851;DHT22;9051;51.548;14.348;2023-04-01T02:34:54;9.80;99.90
17851;DHT22;9051;51.548;14.348;2023-04-01T02:37:28;9.70;99.90
17851;DHT22;9051;51.548;14.348;2023-04-01T02:40:00;9.80;99.90
17851;DHT22;9051;51.548;14.348;2023-04-01T02:42:33;9.80;99.90
17851;DHT22;9051;51.548;14.348;2023-04-01T02:45:07;9.80;99.90
17851;DHT22;9051;51.548;14.348;2023-04-01T02:47:39;9.80;99.90
17851;DHT22;9051;51.548;14.348;2023-04-01T02:50:11;9.80;99.90
17851;DHT22;9051;51.548;14.348;2023-04-01T02:52:44;9.80;99.90
17851;DHT22;9051;51.548;14.348;2023-04-01T02:55:17;9.80;99.90
17851;DHT22;9051;51.548;14.348;2023-04-01T02:57:49;9.90;99.90
17851;DHT22;9051;51.548;14.348;2023-04-01T03:00:21;9.80;99.90
17851;DHT22;9051;51.548;14.348;2023-04-01T03:02:53;9.80;99.90
17851;DHT22;9051;51.548;14.348;2023-04-01T03:05:25;9.80;99.90
17851;DHT22;9051;51.548;14.348;2023-04-01T03:07:59;9.80;99.90
17851;DHT22;9051;51.548;14.348;2023-04-01T03:10:30;9.80;99.90
17851;DHT22;9051;51.548;14.348;2023-04-01T03:13:03;9.80;99.90
17851;DHT22;9051;51.548;14.348;2023-04-01T03:15:35;9.70;99.90
17851;DHT22;9051;51.548;14.348;2023-04-01T03:18:07;9.70;99.90
17851;DHT22;9051;51.548;14.348;2023-04-01T03:20:39;9.70;99.90
17851;DHT22;9051;51.548;14.348;2023-04-01T03:23:16;9.70;99.90
17851;DHT22;9051;51.548;14.348;2023-04-01T03:25:50;9.70;99.90
17851;DHT22;9051;51.548;14.348;2023-04-01T03:28:22;9.70;99.90
17851;DHT22;9051;51.548;14.348;2023-04-01T03:30:55;9.70;99.90
17851;DHT22;9051;51.548;14.348;2023-04-01T03:33:27;9.70;99.90
17851;DHT22;9051;51.548;14.348;2023-04-01T03:35:59;9.70;99.90
17851;DHT22;9051;51.548;14.348;2023-04-01T03:38:33;9.70;99.90
17851;DHT22;9051;51.548;14.348;2023-04-01T03:41:05;9.70;99.90
17851;DHT22;9051;51.548;14.348;2023-04-01T03:43:40;9.80;99.90
17851;DHT22;9051;51.548;14.348;2023-04-01T03:46:18;9.80;99.90
17851;DHT22;9051;51.548;14.348;2023-04-01T03:49:13;9.80;99.90
17851;DHT22;9051;51.548;14.348;2023-04-01T03:52:23;9.70;99.90
17851;DHT22;9051;51.548;14.348;2023-04-01T03:54:58;9.70;99.90
17851;DHT22;9051;51.548;14.348;2023-04-01T03:57:33;9.70;99.90
17851;DHT22;9051;51.548;14.348;2023-04-01T04:00:18;9.70;99.90
17851;DHT22;9051;51.548;14.348;2023-04-01T04:02:55;9.70;99.90
17851;DHT22;9051;51.548;14.348;2023-04-01T04:05:33;9.80;99.90
17851;DHT22;9051;51.548;14.348;2023-04-01T04:08:06;9.80;99.90
17851;DHT22;9051;51.548;14.348;2023-04-01T04:10:39;9.70;99.90
17851;DHT22;9051;51.548;14.348;2023-04-01T04:13:11;9.70;99.90
17851;DHT22;9051;51.548;14.348;2023-04-01T04:15:50;9.70;99.90
17851;DHT22;9051;51.548;14.348;2023-04-01T04:18:22;9.80;99.90
17851;DHT22;9051;51.548;14.348;2023-04-01T04:20:54;9.70;99.90
17851;DHT22;9051;51.548;14.348;2023-04-01T04:23:27;9.80;99.90
17851;DHT22;9051;51.548;14.348;2023-04-01T04:26:07;9.70;99.90
17851;DHT22;9051;51.548;14.348;2023-04-01T04:28:40;9.70;99.90
17851;DHT22;9051;51.548;14.348;2023-04-01T04:31:12;9.70;99.90
17851;DHT22;9051;51.548;14.348;2023-04-01T04:33:49;9.70;99.90
17851;DHT22;9051;51.548;14.348;2023-04-01T04:36:22;9.60;99.90
17851;DHT22;9051;51.548;14.348;2023-04-01T04:38:56;9.70;99.90
17851;DHT22;9051;51.548;14.348;2023-04-01T04:41:37;9.70;99.90
17851;DHT22;9051;51.548;14.348;2023-04-01T04:44:11;9.70;99.90
17851;DHT22;9051;51.548;14.348;2023-04-01T04:46:43;9.70;99.90
17851;DHT22;9051;51.548;14.348;2023-04-01T04:49:18;9.70;99.90
17851;DHT22;9051;51.548;14.348;2023-04-01T04:51:50;9.70;99.90
17851;DHT22;9051;51.548;14.348;2023-04-01T04:54:26;9.70;99.90
17851;DHT22;9051;51.548;14.348;2023-04-01T04:57:04;9.70;99.90
17851;DHT22;9051;51.548;14.348;2023-04-01T04:59:48;9.70;99.90
17851;DHT22;9051;51.548;14.348;2023-04-01T05:02:28;9.70;99.90
17851;DHT22;9051;51.548;14.348;2023-04-01T05:05:00;9.60;99.90
17851;DHT22;9051;51.548;14.348;2023-04-01T05:07:34;9.70;99.90
17851;DHT22;9051;51.548;14.348;2023-04-01T05:10:09;9.70;99.90
17851;DHT22;9051;51.548;14.348;2023-04-01T05:12:44;9.60;99.90
17851;DHT22;9051;51.548;14.348;2023-04-01T05:15:21;9.60;99.90
17851;DHT22;9051;51.548;14.348;2023-04-01T05:17:54;9.70;99.90
17851;DHT22;9051;51.548;14.348;2023-04-01T05:20:47;9.70;99.90
17851;DHT22;9051;51.548;14.348;2023-04-01T05:23:21;9.70;99.90
17851;DHT22;9051;51.548;14.348;2023-04-01T05:25:58;9.60;99.90
17851;DHT22;9051;51.548;14.348;2023-04-01T05:28:34;9.60;99.90
17851;DHT22;9051;51.548;14.348;2023-04-01T05:31:07;9.70;99.90
17851;DHT22;9051;51.548;14.348;2023-04-01T05:33:49;9.70;99.90
17851;DHT22;9051;51.548;14.348;2023-04-01T05:36:21;9.70;99.90
17851;DHT22;9051;51.548;14.348;2023-04-01T05:38:55;9.70;99.90
17851;DHT22;9051;51.548;14.348;2023-04-01T05:41:27;9.70;99.90
17851;DHT22;9051;51.548;14.348;2023-04-01T05:50:41;9.60;99.90
17851;DHT22;9051;51.548;14.348;2023-04-01T05:53:29;9.60;99.90
17851;DHT22;9051;51.548;14.348;2023-04-01T05:56:07;9.60;99.90
17851;DHT22;9051;51.548;14.348;2023-04-01T05:58:47;9.60;99.90
17851;DHT22;9051;51.548;14.348;2023-04-01T06:01:51;9.60;99.90
17851;DHT22;9051;51.548;14.348;2023-04-01T06:04:38;9.70;99.90
17851;DHT22;9051;51.548;14.348;2023-04-01T06:07:15;9.70;99.90
17851;DHT22;9051;51.548;14.348;2023-04-01T06:10:12;9.80;99.90
17851;DHT22;9051;51.548;14.348;2023-04-01T06:12:57;9.70;99.90
17851;DHT22;9051;51.548;14.348;2023-04-01T06:15:52;9.70;99.90
17851;DHT22;9051;51.548;14.348;2023-04-01T06:19:10;9.80;99.90
17851;DHT22;9051;51.548;14.348;2023-04-01T06:22:26;9.90;99.90
17851;DHT22;9051;51.548;14.348;2023-04-01T06:25:31;9.90;99.90
17851;DHT22;9051;51.548;14.348;2023-04-01T06:32:37;10.00;99.90
17851;DHT22;9051;51.548;14.348;2023-04-01T06:52:05;10.20;99.90
17851;DHT22;9051;51.548;14.348;2023-04-01T06:59:20;10.30;99.90
17851;DHT22;9051;51.548;14.348;2023-04-01T07:07:08;10.40;99.90
17851;DHT22;9051;51.548;14.348;2023-04-01T07:10:47;10.40;99.90
17851;DHT22;9051;51.548;14.348;2023-04-01T07:14:28;10.50;99.90
17851;DHT22;9051;51.548;14.348;2023-04-01T07:17:14;10.60;99.90
17851;DHT22;9051;51.548;14.348;2023-04-01T07:20:10;10.60;99.90
17851;DHT22;9051;51.548;14.348;2023-04-01T07:22:44;10.80;99.90
17851;DHT22;9051;51.548;14.348;2023-04-01T07:25:53;10.90;99.90
17851;DHT22;9051;51.548;14.348;2023-04-01T07:28:53;10.90;99.90
17851;DHT22;9051;51.548;14.348;2023-04-01T07:32:01;11.00;99.90
17851;DHT22;9051;51.548;14.348;2023-04-01T07:34:49;11.10;99.90
17851;DHT22;9051;51.548;14.348;2023-04-01T07:37:28;11.10;99.90
17851;DHT22;9051;51.548;14.348;2023-04-01T07:40:13;11.20;99.90
17851;DHT22;9051;51.548;14.348;2023-04-01T07:43:09;11.30;99.90
17851;DHT22;9051;51.548;14.348;2023-04-01T07:46:00;11.40;99.90
17851;DHT22;9051;51.548;14.348;2023-04-01T07:48:40;11.50;99.90
17851;DHT22;9051;51.548;14.348;2023-04-01T07:51:18;11.70;99.90
17851;DHT22;9051;51.548;14.348;2023-04-01T07:54:01;11.70;99.90
17851;DHT22;9051;51.548;14.348;2023-04-01T07:56:39;11.80;99.90
17851;DHT22;9051;51.548;14.348;2023-04-01T07:59:25;11.90;99.90
17851;DHT22;9051;51.548;14.348;2023-04-01T08:02:10;11.90;99.90
17851;DHT22;9051;51.548;14.348;2023-04-01T08:04:52;12.10;99.90
17851;DHT22;9051;51.548;14.348;2023-04-01T08:07:33;12.20;99.90
17851;DHT22;9051;51.548;14.348;2023-04-01T08:10:34;12.30;99.90
17851;DHT22;9051;51.548;14.348;2023-04-01T08:13:46;12.30;99.90
17851;DHT22;9051;51.548;14.348;2023-04-01T08:16:46;12.50;99.90
17851;DHT22;9051;51.548;14.348;2023-04-01T08:19:33;12.50;99.90
17851;DHT22;9051;51.548;14.348;2023-04-01T08:22:14;12.50;99.90
17851;DHT22;9051;51.548;14.348;2023-04-01T08:24:49;12.50;99.90
17851;DHT22;9051;51.548;14.348;2023-04-01T08:27:35;12.40;99.90
17851;DHT22;9051;51.548;14.348;2023-04-01T08:30:19;12.40;99.90
17851;DHT22;9051;51.548;14.348;2023-04-01T08:32:55;12.40;99.90
17851;DHT22;9051;51.548;14.348;2023-04-01T08:35:31;12.50;99.90
17851;DHT22;9051;51.548;14.348;2023-04-01T08:38:12;12.50;99.90
17851;DHT22;9051;51.548;14.348;2023-04-01T08:40:59;12.50;99.90
17851;DHT22;9051;51.548;14.348;2023-04-01T08:47:32;12.60;99.90
17851;DHT22;9051;51.548;14.348;2023-04-01T08:50:24;12.60;99.90
17851;DHT22;9051;51.548;14.348;2023-04-01T08:53:15;12.60;99.90
17851;DHT22;9051;51.548;14.348;2023-04-01T08:56:03;12.60;99.90
17851;DHT22;9051;51.548;14.348;2023-04-01T08:59:11;12.60;99.90
17851;DHT22;9051;51.548;14.348;2023-04-01T09:02:04;12.60;99.90
17851;DHT22;9051;51.548;14.348;2023-04-01T09:05:12;12.70;99.90
17851;DHT22;9051;51.548;14.348;2023-04-01T09:07:57;12.80;99.90
17851;DHT22;9051;51.548;14.348;2023-04-01T09:10:47;12.80;99.90
17851;DHT22;9051;51.548;14.348;2023-04-01T09:19:59;12.70;99.90
17851;DHT22;9051;51.548;14.348;2023-04-01T09:22:45;12.60;99.90
17851;DHT22;9051;51.548;14.348;2023-04-01T09:25:32;12.50;99.90
17851;DHT22;9051;51.548;14.348;2023-04-01T09:28:11;12.50;99.90
17851;DHT22;9051;51.548;14.348;2023-04-01T09:31:08;12.50;99.90
17851;DHT22;9051;51.548;14.348;2023-04-01T09:34:30;12.40;99.90
17851;DHT22;9051;51.548;14.348;2023-04-01T09:37:19;12.50;99.90
17851;DHT22;9051;51.548;14.348;2023-04-01T09:40:09;12.50;99.90
17851;DHT22;9051;51.548;14.348;2023-04-01T09:43:13;12.40;99.90
17851;DHT22;9051;51.548;14.348;2023-04-01T09:46:08;12.50;99.90
17851;DHT22;9051;51.548;14.348;2023-04-01T09:51:59;12.60;99.90
17851;DHT22;9051;51.548;14.348;2023-04-01T09:54:54;12.70;99.90
17851;DHT22;9051;51.548;14.348;2023-04-01T10:01:30;12.60;99.90
17851;DHT22;9051;51.548;14.348;2023-04-01T10:04:29;12.50;99.90
17851;DHT22;9051;51.548;14.348;2023-04-01T10:07:40;12.50;99.90
17851;DHT22;9051;51.548;14.348;2023-04-01T10:10:37;12.60;99.90
17851;DHT22;9051;51.548;14.348;2023-04-01T10:13:55;12.70;99.90
17851;DHT22;9051;51.548;14.348;2023-04-01T10:17:00;12.80;99.90
17851;DHT22;9051;51.548;14.348;2023-04-01T10:19:55;12.80;99.90
17851;DHT22;9051;51.548;14.348;2023-04-01T10:22:57;12.90;99.90
17851;DHT22;9051;51.548;14.348;2023-04-01T10:35:38;12.80;99.90
17851;DHT22;9051;51.548;14.348;2023-04-01T10:42:07;12.50;99.90
17851;DHT22;9051;51.548;14.348;2023-04-01T10:45:30;12.60;99.90
17851;DHT22;9051;51.548;14.348;2023-04-01T10:48:40;12.60;99.90
17851;DHT22;9051;51.548;14.348;2023-04-01T10:51:30;12.60;99.90
17851;DHT22;9051;51.548;14.348;2023-04-01T10:54:37;12.70;99.90
17851;DHT22;9051;51.548;14.348;2023-04-01T10:58:16;12.80;99.90
17851;DHT22;9051;51.548;14.348;2023-04-01T11:02:02;13.00;99.90
17851;DHT22;9051;51.548;14.348;2023-04-01T11:09:05;13.50;99.90
17851;DHT22;9051;51.548;14.348;2023-04-01T11:12:21;13.70;99.90
17851;DHT22;9051;51.548;14.348;2023-04-01T11:15:11;13.70;99.90
17851;DHT22;9051;51.548;14.348;2023-04-01T11:18:22;13.80;99.90
17851;DHT22;9051;51.548;14.348;2023-04-01T11:21:39;13.80;99.90
17851;DHT22;9051;51.548;14.348;2023-04-01T11:25:00;13.80;99.90
17851;DHT22;9051;51.548;14.348;2023-04-01T11:28:07;13.80;99.90
17851;DHT22;9051;51.548;14.348;2023-04-01T11:30:58;13.80;99.90
17851;DHT22;9051;51.548;14.348;2023-04-01T11:33:40;13.90;99.90
17851;DHT22;9051;51.548;14.348;2023-04-01T11:36:24;14.00;99.90
17851;DHT22;9051;51.548;14.348;2023-04-01T11:39:17;13.90;99.90
17851;DHT22;9051;51.548;14.348;2023-04-01T11:42:19;13.90;99.90
17851;DHT22;9051;51.548;14.348;2023-04-01T11:45:37;14.00;99.90
17851;DHT22;9051;51.548;14.348;2023-04-01T11:54:32;13.90;99.90
17851;DHT22;9051;51.548;14.348;2023-04-01T11:57:29;13.90;99.90
17851;DHT22;9051;51.548;14.348;2023-04-01T12:00:22;13.80;99.90
17851;DHT22;9051;51.548;14.348;2023-04-01T12:03:16;13.80;99.90
17851;DHT22;9051;51.548;14.348;2023-04-01T12:09:22;14.00;99.90
17851;DHT22;9051;51.548;14.348;2023-04-01T12:12:10;14.00;99.90
17851;DHT22;9051;51.548;14.348;2023-04-01T12:14:57;14.00;99.90
17851;DHT22;9051;51.548;14.348;2023-04-01T12:17:38;14.00;99.90
17851;DHT22;9051;51.548;14.348;2023-04-01T12:20:29;14.00;99.90
17851;DHT22;9051;51.548;14.348;2023-04-01T12:23:16;14.10;99.90
17851;DHT22;9051;51.548;14.348;2023-04-01T12:26:16;14.20;99.90
17851;DHT22;9051;51.548;14.348;2023-04-01T12:31:55;14.20;99.90
17851;DHT22;9051;51.548;14.348;2023-04-01T12:34:57;14.30;99.90
17851;DHT22;9051;51.548;14.348;2023-04-01T12:37:39;14.50;99.90
17851;DHT22;9051;51.548;14.348;2023-04-01T12:40:48;14.80;99.90
17851;DHT22;9051;51.548;14.348;2023-04-01T12:46:29;14.70;99.90
17851;DHT22;9051;51.548;14.348;2023-04-01T12:52:12;15.10;99.90
17851;DHT22;9051;51.548;14.348;2023-04-01T12:54:59;15.30;99.90
17851;DHT22;9051;51.548;14.348;2023-04-01T12:57:57;15.20;99.90
17851;DHT22;9051;51.548;14.348;2023-04-01T13:00:54;15.30;99.90
17851;DHT22;9051;51.548;14.348;2023-04-01T13:03:54;15.60;99.90
17851;DHT22;9051;51.548;14.348;2023-04-01T13:06:45;15.80;99.90
17851;DHT22;9051;51.548;14.348;2023-04-01T13:09:30;15.90;99.90
17851;DHT22;9051;51.548;14.348;2023-04-01T13:12:26;16.00;99.90
17851;DHT22;9051;51.548;14.348;2023-04-01T13:15:23;15.90;99.90
17851;DHT22;9051;51.548;14.348;2023-04-01T13:18:07;15.80;99.90
17851;DHT22;9051;51.548;14.348;2023-04-01T13:20:47;15.90;99.90
17851;DHT22;9051;51.548;14.348;2023-04-01T13:23:31;15.90;99.90
17851;DHT22;9051;51.548;14.348;2023-04-01T13:26:13;16.10;99.90
17851;DHT22;9051;51.548;14.348;2023-04-01T13:28:50;16.20;99.90
17851;DHT22;9051;51.548;14.348;2023-04-01T13:31:38;16.30;99.90
17851;DHT22;9051;51.548;14.348;2023-04-01T13:34:26;16.30;99.90
17851;DHT22;9051;51.548;14.348;2023-04-01T13:37:13;16.20;99.90
17851;DHT22;9051;51.548;14.348;2023-04-01T13:40:03;16.30;99.90
17851;DHT22;9051;51.548;14.348;2023-04-01T13:42:47;16.20;99.90
17851;DHT22;9051;51.548;14.348;2023-04-01T13:45:22;15.90;99.90
17851;DHT22;9051;51.548;14.348;2023-04-01T13:48:29;15.80;99.90
17851;DHT22;9051;51.548;14.348;2023-04-01T13:51:26;15.60;99.90
17851;DHT22;9051;51.548;14.348;2023-04-01T13:57:10;15.80;99.90
17851;DHT22;9051;51.548;14.348;2023-04-01T14:00:10;15.90;99.90
17851;DHT22;9051;51.548;14.348;2023-04-01T14:02:54;15.80;99.90
17851;DHT22;9051;51.548;14.348;2023-04-01T14:05:39;15.70;99.90
17851;DHT22;9051;51.548;14.348;2023-04-01T14:08:26;15.70;99.90
17851;DHT22;9051;51.548;14.348;2023-04-01T14:11:10;16.00;99.90
17851;DHT22;9051;51.548;14.348;2023-04-01T14:13:53;16.20;99.90
17851;DHT22;9051;51.548;14.348;2023-04-01T14:16:54;16.20;99.90
17851;DHT22;9051;51.548;14.348;2023-04-01T14:19:46;16.10;99.90
17851;DHT22;9051;51.548;14.348;2023-04-01T14:22:27;16.00;99.90
17851;DHT22;9051;51.548;14.348;2023-04-01T14:25:33;15.90;99.90
17851;DHT22;9051;51.548;14.348;2023-04-01T14:28:16;16.00;99.90
17851;DHT22;9051;51.548;14.348;2023-04-01T14:30:59;16.00;99.90
17851;DHT22;9051;51.548;14.348;2023-04-01T14:33:42;16.00;99.90
17851;DHT22;9051;51.548;14.348;2023-04-01T14:36:53;15.90;99.90
17851;DHT22;9051;51.548;14.348;2023-04-01T14:46:00;16.40;99.90
17851;DHT22;9051;51.548;14.348;2023-04-01T14:48:39;16.30;99.90
17851;DHT22;9051;51.548;14.348;2023-04-01T14:51:23;16.10;99.90
17851;DHT22;9051;51.548;14.348;2023-04-01T14:54:05;15.80;99.90
17851;DHT22;9051;51.548;14.348;2023-04-01T14:56:40;15.50;99.90
17851;DHT22;9051;51.548;14.348;2023-04-01T14:59:26;15.30;99.90
17851;DHT22;9051;51.548;14.348;2023-04-01T15:02:02;15.10;99.90
17851;DHT22;9051;51.548;14.348;2023-04-01T15:04:47;15.00;99.90
17851;DHT22;9051;51.548;14.348;2023-04-01T15:07:36;15.00;99.90
17851;DHT22;9051;51.548;14.348;2023-04-01T15:13:15;14.80;99.90
17851;DHT22;9051;51.548;14.348;2023-04-01T15:16:01;14.70;99.90
17851;DHT22;9051;51.548;14.348;2023-04-01T15:18:44;14.60;99.90
17851;DHT22;9051;51.548;14.348;2023-04-01T15:21:40;14.50;99.90
17851;DHT22;9051;51.548;14.348;2023-04-01T15:24:21;14.40;99.90
17851;DHT22;9051;51.548;14.348;2023-04-01T15:27:12;14.30;99.90
17851;DHT22;9051;51.548;14.348;2023-04-01T15:30:01;14.10;99.90
17851;DHT22;9051;51.548;14.348;2023-04-01T15:32:46;13.80;99.90
17851;DHT22;9051;51.548;14.348;2023-04-01T15:35:29;13.70;99.90
17851;DHT22;9051;51.548;14.348;2023-04-01T15:38:06;13.60;99.90
17851;DHT22;9051;51.548;14.348;2023-04-01T15:40:44;13.50;99.90
17851;DHT22;9051;51.548;14.348;2023-04-01T15:43:32;13.40;99.90
17851;DHT22;9051;51.548;14.348;2023-04-01T15:46:36;13.30;99.90
17851;DHT22;9051;51.548;14.348;2023-04-01T15:49:28;13.40;99.90
17851;DHT22;9051;51.548;14.348;2023-04-01T15:52:14;13.30;99.90
17851;DHT22;9051;51.548;14.348;2023-04-01T15:57:46;13.10;99.90
17851;DHT22;9051;51.548;14.348;2023-04-01T16:00:27;13.00;99.90
17851;DHT22;9051;51.548;14.348;2023-04-01T16:03:17;13.00;99.90
17851;DHT22;9051;51.548;14.348;2023-04-01T16:06:08;12.80;99.90
17851;DHT22;9051;51.548;14.348;2023-04-01T16:11:47;12.70;99.90
17851;DHT22;9051;51.548;14.348;2023-04-01T16:14:31;12.50;99.90
17851;DHT22;9051;51.548;14.348;2023-04-01T16:17:19;12.40;99.90
17851;DHT22;9051;51.548;14.348;2023-04-01T16:20:00;12.30;99.90
17851;DHT22;9051;51.548;14.348;2023-04-01T16:22:38;12.30;99.90
17851;DHT22;9051;51.548;14.348;2023-04-01T16:25:21;12.30;99.90
17851;DHT22;9051;51.548;14.348;2023-04-01T16:28:13;12.20;99.90
17851;DHT22;9051;51.548;14.348;2023-04-01T16:30:50;12.10;99.90
17851;DHT22;9051;51.548;14.348;2023-04-01T16:33:37;12.00;99.90
17851;DHT22;9051;51.548;14.348;2023-04-01T16:36:22;12.00;99.90
17851;DHT22;9051;51.548;14.348;2023-04-01T16:39:11;12.00;99.90
17851;DHT22;9051;51.548;14.348;2023-04-01T16:41:49;12.10;99.90
17851;DHT22;9051;51.548;14.348;2023-04-01T16:44:23;12.10;99.90
17851;DHT22;9051;51.548;14.348;2023-04-01T16:46:56;11.90;99.90
17851;DHT22;9051;51.548;14.348;2023-04-01T16:49:32;11.90;99.90
17851;DHT22;9051;51.548;14.348;2023-04-01T16:52:16;11.90;99.90
17851;DHT22;9051;51.548;14.348;2023-04-01T16:54:55;11.90;99.90
17851;DHT22;9051;51.548;14.348;2023-04-01T16:57:35;11.80;99.90
17851;DHT22;9051;51.548;14.348;2023-04-01T17:00:18;11.80;99.90
17851;DHT22;9051;51.548;14.348;2023-04-01T17:03:02;11.60;99.90
17851;DHT22;9051;51.548;14.348;2023-04-01T17:05:49;11.60;99.90
17851;DHT22;9051;51.548;14.348;2023-04-01T17:08:34;11.60;99.90
17851;DHT22;9051;51.548;14.348;2023-04-01T17:11:17;11.60;99.90
17851;DHT22;9051;51.548;14.348;2023-04-01T17:14:01;11.60;99.90
17851;DHT22;9051;51.548;14.348;2023-04-01T17:22:46;11.50;99.90
17851;DHT22;9051;51.548;14.348;2023-04-01T17:25:29;11.40;99.90
17851;DHT22;9051;51.548;14.348;2023-04-01T17:28:14;11.40;99.90
17851;DHT22;9051;51.548;14.348;2023-04-01T17:30:58;11.30;99.90
17851;DHT22;9051;51.548;14.348;2023-04-01T17:34:05;11.20;99.90
17851;DHT22;9051;51.548;14.348;2023-04-01T17:36:52;11.20;99.90
17851;DHT22;9051;51.548;14.348;2023-04-01T17:39:46;11.20;99.90
17851;DHT22;9051;51.548;14.348;2023-04-01T17:42:22;11.10;99.90
17851;DHT22;9051;51.548;14.348;2023-04-01T17:45:04;11.10;99.90
17851;DHT22;9051;51.548;14.348;2023-04-01T17:48:08;11.10;99.90
17851;DHT22;9051;51.548;14.348;2023-04-01T17:50:53;11.10;99.90
17851;DHT22;9051;51.548;14.348;2023-04-01T17:53:36;11.00;99.90
17851;DHT22;9051;51.548;14.348;2023-04-01T17:56:16;11.00;99.90
17851;DHT22;9051;51.548;14.348;2023-04-01T17:58:59;11.00;99.90
17851;DHT22;9051;51.548;14.348;2023-04-01T18:01:42;11.00;99.90
17851;DHT22;9051;51.548;14.348;2023-04-01T18:04:42;10.90;99.90
17851;DHT22;9051;51.548;14.348;2023-04-01T18:07:38;10.90;99.90
17851;DHT22;9051;51.548;14.348;2023-04-01T18:10:23;10.90;99.90
17851;DHT22;9051;51.548;14.348;2023-04-01T18:16:18;10.80;99.90
17851;DHT22;9051;51.548;14.348;2023-04-01T18:19:02;10.70;99.90
17851;DHT22;9051;51.548;14.348;2023-04-01T18:21:43;10.60;99.90
17851;DHT22;9051;51.548;14.348;2023-04-01T18:24:22;10.60;99.90
17851;DHT22;9051;51.548;14.348;2023-04-01T18:27:03;10.60;99.90
17851;DHT22;9051;51.548;14.348;2023-04-01T18:29:41;10.50;99.90
17851;DHT22;9051;51.548;14.348;2023-04-01T18:32:24;10.50;99.90
17851;DHT22;9051;51.548;14.348;2023-04-01T18:35:12;10.50;99.90
17851;DHT22;9051;51.548;14.348;2023-04-01T18:37:53;10.50;99.90
17851;DHT22;9051;51.548;14.348;2023-04-01T18:40:31;10.50;99.90
17851;DHT22;9051;51.548;14.348;2023-04-01T18:43:19;10.40;99.90
17851;DHT22;9051;51.548;14.348;2023-04-01T18:45:57;10.30;99.90
17851;DHT22;9051;51.548;14.348;2023-04-01T18:48:43;10.20;99.90
17851;DHT22;9051;51.548;14.348;2023-04-01T18:51:26;10.10;99.90
17851;DHT22;9051;51.548;14.348;2023-04-01T18:54:10;10.10;99.90
17851;DHT22;9051;51.548;14.348;2023-04-01T18:56:44;10.10;99.90
17851;DHT22;9051;51.548;14.348;2023-04-01T18:59:21;10.20;99.90
17851;DHT22;9051;51.548;14.348;2023-04-01T19:02:02;10.20;99.90
17851;DHT22;9051;51.548;14.348;2023-04-01T19:04:38;10.10;99.90
17851;DHT22;9051;51.548;14.348;2023-04-01T19:07:40;10.10;99.90
17851;DHT22;9051;51.548;14.348;2023-04-01T19:10:26;10.00;99.90
17851;DHT22;9051;51.548;14.348;2023-04-01T19:13:10;10.00;99.90
17851;DHT22;9051;51.548;14.348;2023-04-01T19:15:48;10.10;99.90
17851;DHT22;9051;51.548;14.348;2023-04-01T19:18:47;10.00;99.90
17851;DHT22;9051;51.548;14.348;2023-04-01T19:21:29;10.00;99.90
17851;DHT22;9051;51.548;14.348;2023-04-01T19:24:16;9.90;99.90
17851;DHT22;9051;51.548;14.348;2023-04-01T19:26:58;9.80;99.90
17851;DHT22;9051;51.548;14.348;2023-04-01T19:29:48;9.80;99.90
17851;DHT22;9051;51.548;14.348;2023-04-01T19:32:33;9.80;99.90